Time;durP1;ratioP1;P1;durP2;ratioP2;P2;SDS_P1;SDS_P2;PMS_P1;PMS_P2;Temp;Humidity;BMP_temperature;BMP_pressure;BME280_temperature;BME280_humidity;BME280_pressure;Samples;Min_cycle;Max_cycle;Signal;HPM_P1;HPM_P2
2023/06/11 00:04:27;;;;;;;5.70;3.30;;;;;;;20.66;45.38;99835.69;10557220;27;20051;-64
2023/06/11 00:09:29;;;;;;;4.80;3.15;;;;;;;20.36;45.74;99839.59;10554905;28;20125;-64
2023/06/11 00:14:31;;;;;;;4.57;3.03;;;;;;;20.26;46.29;99841.53;10566202;27;20050;-64
2023/06/11 00:19:33;;;;;;;4.88;3.05;;;;;;;20.19;46.22;99837.84;10564043;27;20582;-64
2023/06/11 00:24:35;;;;;;;5.82;3.22;;;;;;;20.23;46.42;99836.53;10572674;27;20055;-64
2023/06/11 00:29:37;;;;;;;5.78;3.30;;;;;;;20.23;46.37;99840.00;10590056;27;20894;-64
2023/06/11 00:34:38;;;;;;;5.32;3.33;;;;;;;20.04;47.00;99837.56;10583768;27;20050;-64
2023/06/11 00:39:40;;;;;;;5.65;3.17;;;;;;;19.93;47.01;99834.31;10567464;27;20055;-64
2023/06/11 00:44:42;;;;;;;6.03;3.15;;;;;;;19.88;47.41;99831.28;10580040;27;20050;-64
2023/06/11 00:49:44;;;;;;;7.13;3.70;;;;;;;19.75;47.78;99831.63;10585271;27;20090;-64
2023/06/11 00:54:46;;;;;;;4.72;3.17;;;;;;;19.69;47.70;99828.75;10572439;27;20147;-64
2023/06/11 00:59:50;;;;;;;4.78;3.28;;;;;;;19.39;48.81;99837.91;10553091;27;20044;-64
2023/06/11 01:04:57;;;;;;;6.28;3.13;;;;;;;19.35;48.58;99834.72;10571345;27;20051;-64
2023/06/11 01:10:00;;;;;;;6.85;3.10;;;;;;;19.42;48.55;99837.59;10576066;27;20111;-64
2023/06/11 01:15:02;;;;;;;5.45;3.42;;;;;;;19.39;48.95;99840.56;10566438;27;20547;-64
2023/06/11 01:20:19;;;;;;;5.43;3.42;;;;;;;19.18;50.16;99842.63;10576088;27;20035;-64
2023/06/11 01:25:48;;;;;;;5.15;3.42;;;;;;;19.05;50.73;99848.31;10574865;27;20521;-64
2023/06/11 01:30:52;;;;;;;6.03;3.22;;;;;;;19.04;49.79;99846.63;10559869;27;20063;-64
2023/06/11 01:35:58;;;;;;;8.30;3.85;;;;;;;18.94;50.11;99855.56;10567153;27;20050;-64
2023/06/11 01:41:05;;;;;;;6.60;3.90;;;;;;;19.06;49.86;99855.25;10562909;27;20048;-64
2023/06/11 01:46:07;;;;;;;5.95;3.70;;;;;;;19.06;49.92;99857.06;10574187;27;20043;-64
2023/06/11 01:51:09;;;;;;;5.10;3.20;;;;;;;18.88;50.06;99856.16;10570727;27;20043;-64
2023/06/11 01:56:11;;;;;;;6.05;3.40;;;;;;;19.01;50.19;99852.19;10575899;27;20043;-64
2023/06/11 02:01:13;;;;;;;5.20;3.28;;;;;;;19.12;50.23;99845.88;10555179;27;20055;-64
2023/06/11 02:06:16;;;;;;;4.72;3.15;;;;;;;18.88;50.18;99850.84;10584772;27;20075;-64
2023/06/11 02:11:18;;;;;;;6.03;3.42;;;;;;;18.80;50.52;99853.41;10552800;27;20105;-64
2023/06/11 02:16:20;;;;;;;5.43;3.17;;;;;;;18.62;50.93;99850.69;10569545;27;20047;-64
2023/06/11 02:21:22;;;;;;;7.28;3.30;;;;;;;18.41;51.47;99853.53;10569856;27;20068;-64
2023/06/11 02:26:23;;;;;;;4.80;3.10;;;;;;;18.46;51.12;99853.09;10580644;27;20133;-64
2023/06/11 02:31:25;;;;;;;5.35;3.40;;;;;;;18.31;51.41;99851.88;10576700;27;20051;-64
2023/06/11 02:36:27;;;;;;;9.70;3.67;;;;;;;18.26;51.61;99864.72;10577303;27;20059;-64
2023/06/11 02:41:29;;;;;;;6.30;3.47;;;;;;;18.30;51.48;99866.91;10580103;27;20043;-64
2023/06/11 02:46:31;;;;;;;5.53;4.03;;;;;;;18.19;51.79;99871.50;10577612;27;20051;-64
2023/06/11 02:51:33;;;;;;;5.32;3.35;;;;;;;18.14;51.76;99871.09;10578020;27;20051;-64
2023/06/11 02:56:36;;;;;;;5.55;3.40;;;;;;;18.06;51.97;99878.91;10566412;27;20048;-64
2023/06/11 03:01:39;;;;;;;5.47;3.30;;;;;;;18.10;51.85;99877.63;10574546;27;20058;-64
2023/06/11 03:06:42;;;;;;;6.25;3.45;;;;;;;18.14;51.89;99874.56;10556499;27;20039;-64
2023/06/11 03:11:44;;;;;;;8.07;3.55;;;;;;;17.87;52.17;99892.16;10558101;27;20525;-64
2023/06/11 03:16:46;;;;;;;6.47;3.78;;;;;;;17.77;52.66;99885.03;10571099;27;20052;-64
2023/06/11 03:21:48;;;;;;;5.28;3.28;;;;;;;17.79;52.64;99888.38;10533612;28;20127;-64
2023/06/11 03:26:50;;;;;;;7.22;3.60;;;;;;;17.88;52.66;99885.88;10561955;27;20618;-64
2023/06/11 03:31:52;;;;;;;5.47;3.55;;;;;;;17.56;52.87;99889.63;10570419;27;20097;-65
2023/06/11 03:36:56;;;;;;;5.57;3.50;;;;;;;17.29;53.43;99894.66;10556403;27;20043;-64
2023/06/11 03:41:58;;;;;;;6.03;3.45;;;;;;;17.40;53.11;99889.31;10570959;27;20499;-64
2023/06/11 03:47:04;;;;;;;5.40;3.40;;;;;;;17.28;53.25;99903.53;10572619;27;20175;-64
2023/06/11 03:52:06;;;;;;;5.85;3.47;;;;;;;17.35;53.69;99904.72;10566251;28;20503;-64
2023/06/11 03:57:08;;;;;;;5.32;3.38;;;;;;;17.53;53.51;99905.75;10572361;28;20040;-64
2023/06/11 04:02:10;;;;;;;5.97;3.63;;;;;;;17.60;53.42;99904.22;10570281;28;20043;-64
2023/06/11 04:07:12;;;;;;;7.00;3.55;;;;;;;17.63;53.97;99908.38;10559781;27;20136;-64
2023/06/11 04:12:14;;;;;;;5.22;3.30;;;;;;;19.39;51.73;99905.06;10573388;27;20191;-64
2023/06/11 04:17:17;;;;;;;4.95;3.30;;;;;;;21.69;47.74;99900.09;10561417;28;20044;-64
2023/06/11 04:22:20;;;;;;;5.40;3.42;;;;;;;23.58;44.18;99895.00;10558079;28;20046;-64
2023/06/11 04:27:22;;;;;;;5.35;3.10;;;;;;;24.50;42.76;99895.69;10564459;28;20418;-64
2023/06/11 04:32:26;;;;;;;4.10;2.90;;;;;;;26.35;40.42;99887.94;10547912;28;20060;-63
2023/06/11 04:37:38;;;;;;;5.18;2.97;;;;;;;27.30;38.29;99880.94;10556371;28;20040;-62
2023/06/11 04:42:46;;;;;;;5.40;2.80;;;;;;;28.10;37.01;99888.19;10555579;28;20414;-62
2023/06/11 04:47:49;;;;;;;4.40;2.60;;;;;;;29.14;35.51;99884.63;10547995;28;20048;-62
2023/06/11 04:52:52;;;;;;;3.92;2.78;;;;;;;30.20;33.89;99880.34;10536995;27;20063;-62
2023/06/11 04:57:56;;;;;;;3.40;2.53;;;;;;;30.51;32.84;99875.75;10560841;27;20059;-62
2023/06/11 05:03:02;;;;;;;6.13;3.08;;;;;;;30.75;32.13;99884.03;10545555;27;20054;-62
2023/06/11 05:08:07;;;;;;;3.60;2.53;;;;;;;31.52;31.30;99870.72;10554775;27;20047;-62
2023/06/11 05:13:09;;;;;;;3.70;2.60;;;;;;;32.37;30.13;99871.31;10561571;27;20074;-62
2023/06/11 05:18:11;;;;;;;3.53;2.38;;;;;;;33.28;29.05;99875.06;10565126;27;20039;-63
2023/06/11 05:23:18;;;;;;;4.63;2.80;;;;;;;33.79;26.93;99877.72;10572951;27;20052;-62
2023/06/11 05:28:20;;;;;;;5.82;2.80;;;;;;;32.37;28.63;99883.00;10580890;27;20146;-63
2023/06/11 05:33:26;;;;;;;3.88;2.70;;;;;;;29.47;31.35;99896.13;10575300;27;20035;-62
2023/06/11 05:38:28;;;;;;;4.25;2.80;;;;;;;27.60;33.63;99894.06;10554803;27;20055;-62
2023/06/11 05:43:31;;;;;;;4.68;2.83;;;;;;;26.14;35.22;99897.84;10567896;27;20063;-62
2023/06/11 05:48:33;;;;;;;4.40;3.03;;;;;;;24.73;36.92;99906.38;10567212;27;20426;-62
2023/06/11 05:53:36;;;;;;;4.95;3.22;;;;;;;24.29;38.02;99922.25;10551242;27;20051;-62
2023/06/11 05:58:38;;;;;;;4.32;2.70;;;;;;;23.95;38.41;99917.31;10577138;27;20073;-62
2023/06/11 06:03:40;;;;;;;5.10;3.20;;;;;;;23.81;39.26;99922.59;10559870;27;20050;-62
2023/06/11 06:08:43;;;;;;;4.40;2.70;;;;;;;23.81;38.94;99923.44;10570238;27;20058;-62
2023/06/11 06:13:46;;;;;;;4.47;2.83;;;;;;;23.50;40.45;99914.59;10559616;27;20039;-62
2023/06/11 06:18:49;;;;;;;4.30;2.60;;;;;;;23.38;40.17;99929.28;10575867;27;20036;-62
2023/06/11 06:23:52;;;;;;;4.35;2.90;;;;;;;23.97;39.82;99927.81;10562135;27;20052;-63
2023/06/11 06:28:54;;;;;;;5.55;3.08;;;;;;;24.43;39.16;99923.34;10557323;27;20048;-62
2023/06/11 06:33:57;;;;;;;4.10;2.60;;;;;;;24.70;38.86;99930.75;10552215;27;20047;-62
2023/06/11 06:39:01;;;;;;;5.28;3.03;;;;;;;24.72;38.88;99934.94;10567692;27;20055;-63
2023/06/11 06:44:04;;;;;;;4.20;2.80;;;;;;;24.54;39.14;99941.59;10544796;27;20079;-62
2023/06/11 06:49:06;;;;;;;4.25;2.75;;;;;;;25.31;38.27;99930.44;10575738;27;20070;-63
2023/06/11 06:54:08;;;;;;;4.45;2.90;;;;;;;26.14;37.45;99930.03;10566813;27;20043;-63
2023/06/11 06:59:10;;;;;;;4.95;2.65;;;;;;;27.49;36.33;99923.19;10557036;27;20407;-63
2023/06/11 07:04:13;;;;;;;4.38;2.35;;;;;;;29.37;34.42;99921.84;10558503;27;20058;-62
2023/06/11 07:09:16;;;;;;;4.32;2.70;;;;;;;30.76;33.03;99918.94;10571731;27;20043;-63
2023/06/11 07:14:21;;;;;;;4.45;2.88;;;;;;;30.54;30.29;99923.06;10579946;27;20161;-62
2023/06/11 07:19:23;;;;;;;4.30;2.80;;;;;;;31.38;31.72;99921.38;10575619;27;20058;-63
2023/06/11 07:24:25;;;;;;;3.70;2.50;;;;;;;32.11;30.66;99913.16;10568339;27;20040;-63
2023/06/11 07:29:27;;;;;;;4.45;2.55;;;;;;;32.80;29.33;99926.00;10568220;27;20051;-63
2023/06/11 07:34:29;;;;;;;3.50;2.40;;;;;;;33.14;28.76;99916.22;10575606;27;20509;-62
2023/06/11 07:39:31;;;;;;;4.13;2.60;;;;;;;32.67;29.01;99918.94;10566715;27;20063;-63
2023/06/11 07:44:34;;;;;;;5.75;2.47;;;;;;;32.40;28.49;99914.97;10552279;27;20047;-63
2023/06/11 07:49:36;;;;;;;3.50;2.22;;;;;;;33.35;28.26;99913.69;10575073;27;20056;-63
2023/06/11 07:54:39;;;;;;;4.22;2.53;;;;;;;32.93;27.31;99913.03;10569226;28;20067;-63
2023/06/11 07:59:42;;;;;;;4.97;2.47;;;;;;;32.17;28.43;99917.63;10565785;27;20052;-63
2023/06/11 08:04:44;;;;;;;4.57;2.40;;;;;;;32.18;28.09;99908.47;10567956;28;20410;-63
2023/06/11 08:09:45;;;;;;;3.70;2.20;;;;;;;32.79;28.34;99906.22;10560197;27;20089;-63
2023/06/11 08:14:48;;;;;;;3.28;1.80;;;;;;;32.82;25.98;99910.34;10555574;28;20048;-63
2023/06/11 08:19:50;;;;;;;3.67;1.90;;;;;;;32.48;26.24;99898.44;10559826;28;20039;-63
2023/06/11 08:24:52;;;;;;;3.30;2.10;;;;;;;32.43;25.44;99900.16;10580944;28;20047;-63
2023/06/11 08:29:54;;;;;;;5.10;2.00;;;;;;;32.32;25.69;99899.09;10575127;27;20052;-63
2023/06/11 08:34:55;;;;;;;3.00;1.85;;;;;;;32.69;24.96;99895.16;10570854;27;20567;-63
2023/06/11 08:39:57;;;;;;;3.42;2.10;;;;;;;32.50;24.86;99892.78;10575948;27;20035;-63
2023/06/11 08:44:59;;;;;;;3.10;2.00;;;;;;;32.48;23.87;99887.59;10563963;27;20450;-62
2023/06/11 08:50:03;;;;;;;2.95;1.90;;;;;;;32.83;23.23;99890.31;10563440;27;20044;-63
2023/06/11 08:55:06;;;;;;;3.55;2.15;;;;;;;32.83;22.70;99883.00;10572697;27;20032;-63
2023/06/11 09:00:09;;;;;;;3.00;1.95;;;;;;;32.30;22.84;99892.25;10558629;27;20047;-63
2023/06/11 09:05:12;;;;;;;3.10;2.10;;;;;;;32.22;23.81;99883.44;10567359;27;21075;-63
2023/06/11 09:10:15;;;;;;;3.28;2.00;;;;;;;32.19;23.68;99883.88;10564206;27;20047;-63
2023/06/11 09:15:20;;;;;;;3.25;2.00;;;;;;;31.99;22.59;99877.13;10564252;27;20044;-63
2023/06/11 09:20:22;;;;;;;3.50;2.20;;;;;;;31.78;23.06;99877.66;10579903;27;20563;-63
2023/06/11 09:25:30;;;;;;;3.47;2.00;;;;;;;32.04;21.75;99879.97;10568396;27;20043;-63
2023/06/11 09:30:32;;;;;;;3.35;1.92;;;;;;;31.83;22.40;99877.75;10569502;27;20157;-63
2023/06/11 09:35:42;;;;;;;3.13;1.80;;;;;;;32.50;21.87;99876.53;10577476;27;20047;-63
2023/06/11 09:40:46;;;;;;;3.15;1.77;;;;;;;32.28;21.18;99886.25;10560846;27;20051;-63
2023/06/11 09:45:53;;;;;;;3.13;1.98;;;;;;;32.00;21.38;99887.75;10566874;27;20115;-63
2023/06/11 09:50:55;;;;;;;3.83;2.00;;;;;;;31.47;20.87;99890.28;10578143;27;20058;-62
2023/06/11 09:55:58;;;;;;;4.78;2.50;;;;;;;31.52;21.53;99886.94;10558678;27;20036;-62
2023/06/11 10:01:11;;;;;;;3.63;1.92;;;;;;;31.50;21.30;99894.44;10559700;27;20532;-62
2023/06/11 10:06:19;;;;;;;3.55;1.98;;;;;;;31.56;21.50;99895.44;10575233;27;20561;-62
2023/06/11 10:11:22;;;;;;;3.38;2.15;;;;;;;31.39;21.76;99892.50;10556769;27;20095;-62
2023/06/11 10:16:25;;;;;;;4.20;2.20;;;;;;;31.42;22.58;99886.63;10572048;27;20033;-63
2023/06/11 10:21:33;;;;;;;3.40;2.05;;;;;;;31.53;21.94;99899.41;10564216;27;20638;-62
2023/06/11 10:26:35;;;;;;;3.35;2.05;;;;;;;31.58;22.22;99882.50;10566449;27;20047;-62
2023/06/11 10:31:42;;;;;;;3.33;2.10;;;;;;;30.77;22.84;99893.56;10573042;27;20153;-62
2023/06/11 10:36:44;;;;;;;3.78;2.28;;;;;;;30.81;22.71;99894.78;10550424;27;20051;-62
2023/06/11 10:41:46;;;;;;;3.00;2.03;;;;;;;30.48;23.63;99894.25;10566342;27;20043;-62
2023/06/11 10:46:50;;;;;;;7.22;2.20;;;;;;;30.06;24.33;99901.22;10563531;27;20109;-62
2023/06/11 10:51:53;;;;;;;3.70;2.45;;;;;;;29.94;24.75;99889.47;10556909;27;20100;-62
2023/06/11 10:56:56;;;;;;;4.13;2.00;;;;;;;29.96;24.92;99890.09;10569286;27;20046;-63
2023/06/11 11:01:58;;;;;;;3.80;2.35;;;;;;;30.31;24.67;99891.28;10565218;27;20100;-62
2023/06/11 11:07:03;;;;;;;5.88;2.42;;;;;;;30.01;24.87;99890.25;10568220;27;20160;-62
2023/06/11 11:12:06;;;;;;;4.20;2.45;;;;;;;29.94;25.30;99885.94;10560494;27;20047;-62
2023/06/11 11:17:08;;;;;;;3.95;2.40;;;;;;;29.62;26.20;99887.78;10555101;27;20039;-62
2023/06/11 11:22:13;;;;;;;3.60;2.35;;;;;;;30.11;25.87;99881.69;10554602;27;20048;-62
2023/06/11 11:27:15;;;;;;;4.43;2.60;;;;;;;30.25;25.16;99878.66;10566750;27;20059;-62
2023/06/11 11:32:17;;;;;;;6.47;2.50;;;;;;;29.85;25.97;99882.63;10554471;27;20043;-62
2023/06/11 11:37:21;;;;;;;3.55;2.30;;;;;;;29.79;25.85;99872.72;10554065;27;20614;-62
2023/06/11 11:42:23;;;;;;;7.28;2.50;;;;;;;29.54;26.04;99872.66;10572048;27;20131;-62
2023/06/11 11:47:29;;;;;;;3.70;2.30;;;;;;;28.96;27.06;99877.22;10555638;27;20043;-62
2023/06/11 11:52:32;;;;;;;4.00;2.47;;;;;;;29.45;25.67;99881.22;10542921;27;20055;-62
2023/06/11 11:57:38;;;;;;;4.13;2.38;;;;;;;29.27;25.94;99873.81;10535999;28;20074;-62
2023/06/11 12:02:43;;;;;;;3.42;2.15;;;;;;;29.25;25.82;99870.50;10538671;28;20050;-62
2023/06/11 12:07:52;;;;;;;3.95;2.28;;;;;;;29.42;26.04;99855.53;10567826;27;20047;-61
2023/06/11 12:12:54;;;;;;;3.70;2.38;;;;;;;29.04;25.91;99863.53;10545858;27;20377;-62
2023/06/11 12:17:56;;;;;;;4.43;2.30;;;;;;;29.45;25.57;99860.50;10553837;27;20066;-62
2023/06/11 12:22:58;;;;;;;3.72;2.35;;;;;;;29.12;25.08;99850.84;10564777;27;21085;-62
2023/06/11 12:28:03;;;;;;;3.55;2.03;;;;;;;29.61;24.27;99842.97;10555250;27;20054;-62
2023/06/11 12:33:05;;;;;;;4.57;2.33;;;;;;;29.60;23.94;99830.56;10560684;27;20952;-62
2023/06/11 12:38:07;;;;;;;3.67;2.45;;;;;;;29.89;24.17;99827.22;10562179;27;20134;-62
2023/06/11 12:43:10;;;;;;;3.10;2.17;;;;;;;30.26;23.67;99825.50;10577278;27;20694;-62
2023/06/11 12:48:12;;;;;;;4.00;2.50;;;;;;;30.10;23.53;99826.91;10562856;27;20058;-62
2023/06/11 12:53:16;;;;;;;3.97;2.25;;;;;;;29.99;23.11;99824.91;10553734;27;20047;-62
2023/06/11 12:58:19;;;;;;;2.85;2.00;;;;;;;29.98;23.05;99823.28;10567229;27;20193;-62
2023/06/11 13:03:21;;;;;;;3.65;2.08;;;;;;;29.91;23.11;99822.44;10549243;27;20047;-62
2023/06/11 13:08:23;;;;;;;4.10;2.20;;;;;;;29.77;22.75;99821.72;10546378;27;20088;-62
2023/06/11 13:13:26;;;;;;;3.80;2.20;;;;;;;29.83;22.71;99817.31;10538899;27;21701;-62
2023/06/11 13:18:28;;;;;;;3.67;2.20;;;;;;;29.65;22.87;99830.72;10551392;27;20043;-63
2023/06/11 13:23:31;;;;;;;3.80;2.00;;;;;;;29.58;23.23;99811.09;10565462;27;20126;-62
2023/06/11 13:28:33;;;;;;;4.18;2.67;;;;;;;29.84;22.77;99806.34;10536772;27;20917;-62
2023/06/11 13:33:35;;;;;;;3.83;2.20;;;;;;;30.06;22.96;99795.19;10562126;27;20133;-63
2023/06/11 13:38:39;;;;;;;3.45;2.08;;;;;;;30.17;22.67;99792.59;10559078;27;20036;-62
2023/06/11 13:43:41;;;;;;;3.33;2.10;;;;;;;30.11;22.54;99789.97;10565897;27;20047;-63
2023/06/11 13:48:43;;;;;;;3.47;1.90;;;;;;;30.15;22.38;99791.97;10569218;27;20063;-62
2023/06/11 13:53:44;;;;;;;4.28;2.28;;;;;;;30.34;22.30;99788.28;10570773;27;20050;-62
2023/06/11 13:58:46;;;;;;;3.47;2.17;;;;;;;30.34;21.89;99779.34;10552506;27;20592;-62
2023/06/11 14:03:48;;;;;;;2.92;2.00;;;;;;;30.31;21.85;99780.66;10534643;27;20544;-62
2023/06/11 14:08:50;;;;;;;3.75;2.00;;;;;;;29.97;21.78;99786.53;10549368;27;20051;-62
2023/06/11 14:13:52;;;;;;;3.15;1.88;;;;;;;29.99;21.06;99773.66;10567318;27;20151;-62
2023/06/11 14:18:54;;;;;;;3.83;2.08;;;;;;;30.01;21.18;99768.06;10559157;27;20686;-62
2023/06/11 14:23:56;;;;;;;2.83;1.75;;;;;;;29.86;21.06;99773.75;10546116;27;20969;-62
2023/06/11 14:28:58;;;;;;;3.05;1.80;;;;;;;30.13;21.37;99763.59;10577282;27;20038;-62
2023/06/11 14:34:00;;;;;;;3.47;1.80;;;;;;;30.13;21.08;99750.91;10560181;27;20055;-62
2023/06/11 14:39:02;;;;;;;3.33;1.90;;;;;;;29.91;21.72;99748.84;10571940;27;20039;-62
2023/06/11 14:44:04;;;;;;;3.90;2.03;;;;;;;30.19;21.27;99730.34;10539941;27;20494;-62
2023/06/11 14:49:06;;;;;;;4.00;2.20;;;;;;;30.19;21.98;99739.22;10568718;27;20052;-62
2023/06/11 14:54:12;;;;;;;3.35;2.10;;;;;;;29.63;22.15;99735.78;10561285;27;20052;-62
2023/06/11 14:59:15;;;;;;;3.72;2.20;;;;;;;29.14;22.93;99738.34;10552791;27;20044;-62
2023/06/11 15:04:16;;;;;;;2.92;1.92;;;;;;;29.15;23.57;99740.84;10559011;27;20047;-62
2023/06/11 15:09:18;;;;;;;3.30;2.20;;;;;;;29.20;23.03;99705.16;10554169;27;20062;-62
2023/06/11 15:14:23;;;;;;;2.95;1.92;;;;;;;29.45;22.77;99719.53;10562468;27;20051;-62
2023/06/11 15:19:25;;;;;;;4.55;2.47;;;;;;;29.52;22.49;99721.13;10569895;27;20035;-62
2023/06/11 15:24:27;;;;;;;4.43;2.08;;;;;;;29.39;22.95;99710.47;10553464;27;20046;-62
2023/06/11 15:29:29;;;;;;;3.78;2.33;;;;;;;29.46;22.79;99713.13;10564516;27;20430;-62
2023/06/11 15:34:31;;;;;;;3.00;1.90;;;;;;;29.68;22.58;99709.00;10556142;27;20506;-62
2023/06/11 15:39:33;;;;;;;3.30;2.03;;;;;;;29.66;22.76;99706.50;10558378;27;20051;-62
2023/06/11 15:44:34;;;;;;;3.38;2.13;;;;;;;29.48;22.80;99711.03;10551808;27;20076;-62
2023/06/11 15:49:36;;;;;;;3.95;1.90;;;;;;;29.56;23.01;99705.38;10575069;27;20054;-62
2023/06/11 15:54:39;;;;;;;3.25;1.98;;;;;;;29.68;22.63;99698.22;10542381;28;20708;-62
2023/06/11 15:59:41;;;;;;;3.88;2.00;;;;;;;29.66;22.38;99697.63;10561513;28;20059;-62
2023/06/11 16:04:45;;;;;;;6.68;2.00;;;;;;;29.68;22.63;99693.63;10554229;28;20599;-62
2023/06/11 16:09:50;;;;;;;5.63;2.15;;;;;;;29.43;22.65;99692.00;10553577;28;20553;-61
2023/06/11 16:14:53;;;;;;;3.78;2.08;;;;;;;29.18;21.73;99691.94;10545486;28;20124;-62
2023/06/11 16:19:56;;;;;;;4.25;2.03;;;;;;;29.27;22.17;99684.41;10575165;28;20040;-62
2023/06/11 16:24:58;;;;;;;3.00;2.00;;;;;;;29.21;21.98;99687.97;10543293;28;20048;-62
2023/06/11 16:30:00;;;;;;;5.18;2.20;;;;;;;29.20;21.69;99694.38;10556172;28;20625;-62
2023/06/11 16:35:02;;;;;;;3.40;2.10;;;;;;;29.15;22.14;99692.38;10558387;28;20035;-62
2023/06/11 16:40:05;;;;;;;3.33;2.00;;;;;;;29.21;22.09;99691.50;10570324;28;20047;-62
2023/06/11 16:45:08;;;;;;;3.40;1.90;;;;;;;29.28;22.08;99696.81;10535643;27;20035;-62
2023/06/11 16:50:10;;;;;;;4.05;1.83;;;;;;;28.86;21.88;99695.63;10551620;27;20052;-62
2023/06/11 16:55:14;;;;;;;3.35;1.90;;;;;;;29.00;22.07;99691.84;10555792;27;20192;-62
2023/06/11 17:00:17;;;;;;;3.45;1.90;;;;;;;29.07;22.34;99692.63;10547296;27;20490;-62
2023/06/11 17:05:19;;;;;;;3.92;2.30;;;;;;;29.04;21.90;99693.88;10557868;27;20069;-62
2023/06/11 17:10:28;;;;;;;3.83;2.22;;;;;;;28.65;21.99;99694.03;10554093;27;20062;-62
2023/06/11 17:15:31;;;;;;;3.55;1.90;;;;;;;28.58;22.50;99695.97;10525541;27;20636;-62
2023/06/11 17:20:35;;;;;;;3.70;2.10;;;;;;;28.68;22.11;99704.41;10559603;27;20160;-62
2023/06/11 17:25:37;;;;;;;3.30;1.92;;;;;;;28.26;21.52;99699.53;10538361;27;20298;-62
2023/06/11 17:30:39;;;;;;;3.97;2.15;;;;;;;28.08;22.06;99694.00;10540745;27;20051;-62
2023/06/11 17:35:41;;;;;;;3.22;1.80;;;;;;;28.21;22.08;99692.13;10536228;27;20410;-62
2023/06/11 17:40:43;;;;;;;3.63;1.90;;;;;;;27.98;22.30;99688.22;10571735;27;20070;-62
2023/06/11 17:45:45;;;;;;;4.30;2.00;;;;;;;28.20;22.09;99689.63;10539418;27;20529;-62
2023/06/11 17:50:50;;;;;;;2.90;1.77;;;;;;;27.93;22.03;99686.16;10549504;27;20054;-63
2023/06/11 17:55:52;;;;;;;2.88;1.88;;;;;;;27.80;22.51;99679.97;10554134;27;20411;-62
2023/06/11 18:00:54;;;;;;;3.28;2.05;;;;;;;27.67;22.10;99694.22;10547404;27;20070;-62
2023/06/11 18:05:56;;;;;;;2.90;1.98;;;;;;;27.41;22.53;99689.66;10558243;27;20054;-62
2023/06/11 18:10:58;;;;;;;2.60;1.60;;;;;;;27.43;22.72;99686.78;10548545;27;20048;-62
2023/06/11 18:16:00;;;;;;;4.40;1.90;;;;;;;27.25;22.99;99698.13;10554974;27;20054;-62
2023/06/11 18:21:01;;;;;;;6.97;2.17;;;;;;;27.18;23.19;99697.28;10551393;27;20043;-62
2023/06/11 18:26:04;;;;;;;3.20;1.80;;;;;;;27.18;23.62;99699.97;10569863;27;20044;-62
2023/06/11 18:31:06;;;;;;;3.17;1.80;;;;;;;26.90;23.56;99709.16;10560612;27;20474;-62
2023/06/11 18:36:08;;;;;;;3.00;1.80;;;;;;;26.75;23.68;99703.94;10558111;27;20043;-62
2023/06/11 18:41:10;;;;;;;3.20;1.70;;;;;;;26.61;23.98;99704.91;10531450;27;20091;-62
2023/06/11 18:46:12;;;;;;;3.53;1.75;;;;;;;26.32;23.91;99715.88;10544131;27;20404;-62
2023/06/11 18:51:15;;;;;;;2.92;1.80;;;;;;;26.17;23.98;99712.50;10560492;27;20845;-62
2023/06/11 18:56:16;;;;;;;3.25;1.90;;;;;;;25.95;24.16;99718.91;10567787;27;20047;-62
2023/06/11 19:01:18;;;;;;;3.15;1.92;;;;;;;25.81;24.35;99740.22;10583395;27;20107;-61
2023/06/11 19:06:20;;;;;;;3.08;1.90;;;;;;;25.63;24.51;99737.19;10568388;27;20032;-62
2023/06/11 19:11:22;;;;;;;2.65;1.60;;;;;;;25.49;24.51;99740.78;10567553;27;20050;-62
2023/06/11 19:16:24;;;;;;;2.50;1.70;;;;;;;25.25;24.95;99749.16;10559864;27;20040;-62
2023/06/11 19:21:26;;;;;;;3.63;2.00;;;;;;;25.09;25.10;99757.44;10576842;27;20035;-62
2023/06/11 19:26:28;;;;;;;3.08;1.95;;;;;;;24.89;25.56;99759.03;10559476;27;20402;-62
2023/06/11 19:31:30;;;;;;;3.03;1.80;;;;;;;24.79;25.77;99766.53;10577833;27;20039;-62
2023/06/11 19:36:32;;;;;;;4.00;1.80;;;;;;;24.57;26.13;99776.28;10570379;27;20047;-62
2023/06/11 19:41:34;;;;;;;3.28;1.80;;;;;;;24.29;26.32;99777.94;10559888;27;20577;-63
2023/06/11 19:46:36;;;;;;;3.35;1.90;;;;;;;24.11;26.67;99780.13;10564606;27;21003;-63
2023/06/11 19:51:39;;;;;;;3.50;1.80;;;;;;;23.91;26.98;99787.78;10554058;27;20047;-63
2023/06/11 19:56:42;;;;;;;4.68;1.77;;;;;;;23.81;27.45;99800.56;10554720;28;20352;-63
2023/06/11 20:01:43;;;;;;;2.65;1.80;;;;;;;23.60;27.88;99802.22;10552055;28;20047;-63
2023/06/11 20:06:46;;;;;;;2.88;1.73;;;;;;;23.42;28.32;99810.53;10559894;28;20406;-63
2023/06/11 20:11:52;;;;;;;3.88;1.92;;;;;;;23.22;28.65;99823.47;10549803;27;20127;-64
2023/06/11 20:16:55;;;;;;;3.20;1.90;;;;;;;23.11;28.98;99815.84;10560050;28;20073;-63
2023/06/11 20:21:58;;;;;;;3.92;1.90;;;;;;;22.99;29.32;99819.06;10575602;27;20043;-63
2023/06/11 20:27:00;;;;;;;5.50;2.10;;;;;;;22.72;30.24;99828.28;10570887;27;20044;-63
2023/06/11 20:32:02;;;;;;;3.17;1.90;;;;;;;22.32;30.40;99833.72;10572721;27;20123;-63
2023/06/11 20:37:05;;;;;;;3.00;1.60;;;;;;;22.21;30.54;99840.22;10574964;27;20134;-63
2023/06/11 20:42:06;;;;;;;3.40;1.70;;;;;;;21.85;30.97;99844.22;10548342;27;20075;-63
2023/06/11 20:47:08;;;;;;;3.42;1.83;;;;;;;21.62;30.85;99832.56;10559333;27;20062;-63
2023/06/11 20:52:10;;;;;;;3.90;1.90;;;;;;;21.47;30.93;99834.19;10546412;27;20502;-63
2023/06/11 20:57:12;;;;;;;3.45;1.90;;;;;;;21.48;31.95;99830.50;10558305;27;20043;-63
2023/06/11 21:02:14;;;;;;;3.72;2.10;;;;;;;21.36;32.61;99835.31;10566618;27;20066;-62
2023/06/11 21:07:16;;;;;;;3.75;2.03;;;;;;;20.76;33.21;99833.75;10579594;27;20570;-62
2023/06/11 21:12:19;;;;;;;3.38;1.98;;;;;;;20.74;33.35;99825.91;10567729;27;20043;-61
2023/06/11 21:17:20;;;;;;;4.07;2.00;;;;;;;20.77;33.33;99830.91;10570454;27;20066;-62
2023/06/11 21:22:23;;;;;;;4.65;1.80;;;;;;;20.86;33.72;99823.81;10545373;27;20499;-62
2023/06/11 21:27:25;;;;;;;3.45;1.80;;;;;;;20.79;34.10;99828.09;10572736;27;20458;-62
2023/06/11 21:32:27;;;;;;;4.25;2.20;;;;;;;20.60;34.69;99837.13;10578677;27;20078;-63
2023/06/11 21:37:29;;;;;;;3.38;1.85;;;;;;;20.57;34.68;99828.59;10564057;27;20758;-62
2023/06/11 21:42:30;;;;;;;3.95;2.15;;;;;;;20.43;35.25;99827.38;10576309;27;20035;-62
2023/06/11 21:47:32;;;;;;;3.17;1.90;;;;;;;20.15;35.67;99824.03;10583789;27;20132;-62
2023/06/11 21:52:37;;;;;;;3.15;1.98;;;;;;;19.91;35.81;99829.16;10573495;27;20134;-62
2023/06/11 21:57:40;;;;;;;3.13;2.00;;;;;;;19.97;35.62;99825.06;10565964;27;20044;-62
2023/06/11 22:02:42;;;;;;;2.92;1.85;;;;;;;19.63;36.30;99827.53;10554477;27;20639;-62
2023/06/11 22:07:44;;;;;;;3.05;2.00;;;;;;;19.57;36.29;99828.16;10555748;27;20040;-62
2023/06/11 22:12:48;;;;;;;3.25;1.92;;;;;;;19.50;36.26;99832.41;10566976;27;20096;-62
2023/06/11 22:17:52;;;;;;;4.80;1.80;;;;;;;19.65;36.18;99830.03;10568204;27;20036;-61
2023/06/11 22:22:54;;;;;;;3.28;1.80;;;;;;;19.67;36.18;99828.06;10582451;27;20067;-62
2023/06/11 22:27:56;;;;;;;3.70;1.90;;;;;;;19.54;36.77;99825.81;10576356;27;20131;-63
2023/06/11 22:32:58;;;;;;;3.58;1.80;;;;;;;19.53;36.77;99825.94;10571483;27;20211;-62
2023/06/11 22:38:00;;;;;;;3.38;1.83;;;;;;;19.34;37.28;99830.41;10555224;27;20620;-63
2023/06/11 22:43:02;;;;;;;4.18;1.92;;;;;;;19.04;37.38;99830.72;10559843;27;20051;-62
2023/06/11 22:48:05;;;;;;;3.90;2.20;;;;;;;19.02;37.65;99838.00;10572651;27;20048;-62
2023/06/11 22:53:07;;;;;;;3.80;2.05;;;;;;;18.87;38.00;99828.81;10571441;27;20047;-62
2023/06/11 22:58:09;;;;;;;3.95;2.13;;;;;;;18.57;38.51;99834.38;10557709;27;20047;-62
2023/06/11 23:03:11;;;;;;;3.25;1.85;;;;;;;18.32;39.01;99838.50;10570200;27;20335;-62
2023/06/11 23:08:13;;;;;;;3.50;2.05;;;;;;;18.25;38.99;99831.25;10553424;27;20392;-62
2023/06/11 23:13:15;;;;;;;3.15;1.90;;;;;;;18.26;39.24;99828.47;10564123;27;20062;-62
2023/06/11 23:18:17;;;;;;;2.83;1.77;;;;;;;18.30;39.48;99826.41;10556778;27;20043;-62
2023/06/11 23:23:19;;;;;;;4.03;2.28;;;;;;;18.32;39.31;99827.09;10551072;27;20411;-62
2023/06/11 23:28:22;;;;;;;3.17;1.73;;;;;;;18.31;39.75;99825.41;10582129;27;20553;-62